Time;durP1;ratioP1;P1;durP2;ratioP2;P2;SDS_P1;SDS_P2;PMS_P1;PMS_P2;Temp;Humidity;BMP_temperature;BMP_pressure;BME280_temperature;BME280_humidity;BME280_pressure;Samples;Min_cycle;Max_cycle;Signal;HPM_P1;HPM_P2
2023/05/15 00:00:12;;;;;;;3.03;2.22;;;15.70;73.60;;;;;;5033644;28;20392;-76
2023/05/15 00:02:38;;;;;;;2.90;1.90;;;15.60;73.70;;;;;;5032182;28;20104;-75
2023/05/15 00:05:05;;;;;;;3.22;2.33;;;15.60;73.80;;;;;;5034495;28;20056;-75
2023/05/15 00:07:31;;;;;;;4.07;2.47;;;15.50;73.70;;;;;;5031754;28;20036;-75
2023/05/15 00:09:56;;;;;;;3.35;2.50;;;15.50;74.00;;;;;;5031299;28;20045;-75
2023/05/15 00:12:22;;;;;;;3.15;1.95;;;15.40;74.00;;;;;;5028104;28;20029;-75
2023/05/15 00:14:48;;;;;;;3.17;2.22;;;15.40;74.10;;;;;;5036711;28;20040;-76
2023/05/15 00:17:13;;;;;;;3.08;2.22;;;15.30;74.20;;;;;;5034057;28;20033;-67
2023/05/15 00:19:39;;;;;;;4.90;3.03;;;15.30;74.20;;;;;;5027478;28;20061;-76
2023/05/15 00:22:05;;;;;;;3.53;2.33;;;15.20;74.40;;;;;;5026679;28;20041;-67
2023/05/15 00:24:30;;;;;;;3.42;2.30;;;15.20;74.30;;;;;;5032650;28;20037;-68
2023/05/15 00:26:58;;;;;;;2.20;1.98;;;15.20;74.10;;;;;;5030217;28;20037;-76
2023/05/15 00:29:23;;;;;;;3.42;1.90;;;15.20;74.10;;;;;;5029542;28;20481;-76
2023/05/15 00:31:49;;;;;;;3.50;2.40;;;15.10;74.00;;;;;;5029019;28;20050;-75
2023/05/15 00:34:15;;;;;;;6.30;2.72;;;15.00;74.10;;;;;;5029324;28;20042;-75
2023/05/15 00:36:40;;;;;;;3.90;2.42;;;15.00;74.10;;;;;;5038649;28;20032;-75
2023/05/15 00:39:06;;;;;;;4.38;1.92;;;15.10;73.90;;;;;;5023755;28;20040;-76
2023/05/15 00:41:33;;;;;;;2.83;1.92;;;15.00;73.80;;;;;;5028210;28;20022;-75
2023/05/15 00:44:01;;;;;;;3.30;2.53;;;15.00;73.60;;;;;;5027601;28;20033;-75
2023/05/15 00:46:31;;;;;;;3.58;1.65;;;15.10;73.60;;;;;;5028327;28;20030;-76
2023/05/15 00:48:57;;;;;;;4.63;2.03;;;15.10;73.40;;;;;;5027079;28;20033;-76
2023/05/15 00:51:26;;;;;;;3.90;2.28;;;15.00;73.20;;;;;;5036591;28;20033;-77
2023/05/15 00:53:53;;;;;;;5.43;2.15;;;15.10;73.20;;;;;;5033251;28;20045;-69
2023/05/15 00:56:20;;;;;;;5.32;2.65;;;15.00;73.20;;;;;;5032799;28;20033;-68
2023/05/15 00:58:47;;;;;;;3.92;2.33;;;15.00;73.10;;;;;;5039338;28;20413;-68
2023/05/15 01:01:14;;;;;;;2.72;1.88;;;14.90;73.10;;;;;;5043801;28;20021;-76
2023/05/15 01:03:41;;;;;;;4.40;2.28;;;14.90;73.10;;;;;;5034612;28;20108;-67
2023/05/15 01:06:06;;;;;;;4.07;2.45;;;14.90;73.10;;;;;;5043271;28;20029;-68
2023/05/15 01:08:49;;;;;;;4.28;2.42;;;14.90;72.90;;;;;;5037672;28;20519;-77
2023/05/15 01:11:16;;;;;;;6.10;2.03;;;14.80;72.70;;;;;;5038857;28;20036;-76
2023/05/15 01:13:43;;;;;;;3.10;2.05;;;14.80;72.70;;;;;;5033791;28;20558;-68
2023/05/15 01:16:09;;;;;;;3.65;2.05;;;14.80;72.60;;;;;;5037672;28;20028;-67
2023/05/15 01:18:35;;;;;;;2.47;2.03;;;14.80;72.50;;;;;;5035877;28;20113;-67
2023/05/15 01:21:04;;;;;;;4.07;2.80;;;14.70;72.50;;;;;;5034836;28;20018;-68
2023/05/15 01:23:35;;;;;;;3.72;2.35;;;14.70;72.80;;;;;;5037316;28;20029;-67
2023/05/15 01:26:20;;;;;;;3.92;2.50;;;14.60;72.90;;;;;;5037036;28;20061;-69
2023/05/15 01:28:56;;;;;;;2.85;1.77;;;14.60;73.00;;;;;;5037246;28;20029;-67
2023/05/15 01:31:25;;;;;;;4.03;2.15;;;14.50;73.30;;;;;;5038165;28;20048;-67
2023/05/15 01:33:58;;;;;;;3.20;2.50;;;14.40;73.40;;;;;;5031819;28;20358;-68
2023/05/15 01:36:41;;;;;;;5.43;2.50;;;14.40;73.70;;;;;;5034116;28;20396;-69
2023/05/15 01:39:09;;;;;;;4.18;2.72;;;14.40;73.70;;;;;;5030976;28;20025;-68
2023/05/15 01:41:38;;;;;;;4.63;2.97;;;14.40;74.10;;;;;;5037232;28;20103;-69
2023/05/15 01:44:14;;;;;;;6.50;2.20;;;14.30;74.70;;;;;;5035496;28;20033;-68
2023/05/15 01:46:49;;;;;;;4.03;2.58;;;14.30;74.10;;;;;;5016795;28;20057;-67
2023/05/15 01:49:18;;;;;;;6.55;2.72;;;14.30;74.20;;;;;;5022862;28;20439;-66
2023/05/15 01:51:47;;;;;;;4.05;2.40;;;14.20;74.40;;;;;;5029731;28;20099;-75
2023/05/15 01:54:14;;;;;;;3.53;2.55;;;14.20;74.40;;;;;;5025931;28;20036;-76
2023/05/15 01:56:43;;;;;;;8.93;2.50;;;14.20;74.50;;;;;;5030369;28;20046;-74
2023/05/15 01:59:12;;;;;;;4.45;2.15;;;14.20;74.50;;;;;;5025211;28;20170;-75
2023/05/15 02:01:40;;;;;;;4.40;2.05;;;14.20;74.50;;;;;;5023008;28;20420;-75
2023/05/15 02:04:06;;;;;;;4.30;2.67;;;14.20;74.80;;;;;;5031258;28;20036;-77
2023/05/15 02:06:32;;;;;;;5.32;3.30;;;14.10;74.90;;;;;;5030497;28;20468;-77
2023/05/15 02:09:01;;;;;;;4.38;2.53;;;14.10;75.20;;;;;;5030620;28;20393;-77
2023/05/15 02:11:27;;;;;;;8.63;3.00;;;14.10;75.30;;;;;;5023493;28;20112;-77
2023/05/15 02:13:55;;;;;;;4.75;2.35;;;14.10;75.40;;;;;;5021742;28;20117;-76
2023/05/15 02:16:21;;;;;;;3.00;2.20;;;14.10;75.60;;;;;;5031441;28;20960;-76
2023/05/15 02:18:47;;;;;;;5.30;2.42;;;14.10;75.60;;;;;;5031978;28;20026;-68
2023/05/15 02:21:14;;;;;;;5.00;2.92;;;14.10;75.60;;;;;;5013518;28;20040;-69
2023/05/15 02:23:43;;;;;;;4.35;2.88;;;14.10;75.80;;;;;;5031617;28;20014;-68
2023/05/15 02:26:40;;;;;;;5.68;3.17;;;14.10;75.80;;;;;;5029459;28;20500;-68
2023/05/15 02:29:33;;;;;;;4.22;2.47;;;14.00;75.90;;;;;;5031463;28;20025;-77
2023/05/15 02:32:10;;;;;;;3.67;2.47;;;14.00;76.10;;;;;;5021094;28;20029;-77
2023/05/15 02:34:59;;;;;;;3.90;2.55;;;14.00;76.10;;;;;;5031173;28;20105;-68
2023/05/15 02:37:30;;;;;;;5.00;2.60;;;13.90;76.20;;;;;;5026580;28;20558;-68
2023/05/15 02:39:58;;;;;;;3.63;2.20;;;14.00;76.10;;;;;;5030304;28;20018;-68
2023/05/15 02:42:26;;;;;;;4.35;2.83;;;14.00;76.00;;;;;;5030269;28;20404;-68
2023/05/15 02:44:54;;;;;;;4.45;1.92;;;14.00;76.10;;;;;;5026823;28;20014;-68
2023/05/15 02:47:22;;;;;;;5.40;3.35;;;14.00;76.00;;;;;;5031093;28;20117;-68
2023/05/15 02:49:48;;;;;;;4.97;2.30;;;14.00;76.10;;;;;;5042642;28;20044;-68
2023/05/15 02:52:14;;;;;;;3.83;2.22;;;14.00;76.00;;;;;;5042777;28;20041;-68
2023/05/15 02:54:40;;;;;;;3.88;1.90;;;14.00;76.00;;;;;;5027771;28;20041;-77
2023/05/15 02:57:06;;;;;;;5.63;2.78;;;14.00;75.90;;;;;;5038669;28;20480;-78
2023/05/15 02:59:33;;;;;;;5.05;2.83;;;14.00;75.90;;;;;;5033027;28;20059;-77
2023/05/15 03:01:58;;;;;;;2.58;2.10;;;14.00;75.80;;;;;;5034260;28;20030;-78
2023/05/15 03:04:24;;;;;;;6.22;1.83;;;14.00;75.80;;;;;;5037896;28;20101;-77
2023/05/15 03:06:50;;;;;;;5.35;2.53;;;14.00;75.80;;;;;;5032178;28;20029;-68
2023/05/15 03:09:16;;;;;;;4.32;2.03;;;13.90;75.80;;;;;;5043618;28;20039;-68
2023/05/15 03:11:42;;;;;;;3.70;2.25;;;13.90;75.90;;;;;;5036879;28;20030;-68
2023/05/15 03:14:08;;;;;;;5.38;3.00;;;13.90;76.60;;;;;;5039465;28;20484;-68
2023/05/15 03:16:35;;;;;;;5.53;3.30;;;13.90;76.10;;;;;;5037344;28;20092;-68
2023/05/15 03:19:01;;;;;;;8.70;2.60;;;13.80;76.20;;;;;;5033864;28;20115;-77
2023/05/15 03:21:27;;;;;;;4.68;3.30;;;13.80;76.40;;;;;;5036298;28;20405;-77
2023/05/15 03:23:52;;;;;;;7.88;3.17;;;13.70;76.70;;;;;;5033664;28;20492;-77
2023/05/15 03:26:18;;;;;;;4.50;2.83;;;13.60;76.90;;;;;;5034031;28;20047;-77
2023/05/15 03:28:44;;;;;;;7.07;3.58;;;13.60;77.10;;;;;;5018968;28;20512;-77
2023/05/15 03:31:10;;;;;;;6.15;2.80;;;13.50;77.20;;;;;;5031796;28;20021;-77
2023/05/15 03:33:40;;;;;;;4.78;3.08;;;13.50;77.50;;;;;;5036915;28;20053;-77
2023/05/15 03:36:06;;;;;;;7.45;4.35;;;13.50;77.50;;;;;;5030024;28;20484;-68
2023/05/15 03:38:32;;;;;;;6.43;3.95;;;13.50;77.70;;;;;;5035940;28;20041;-68
2023/05/15 03:40:58;;;;;;;6.95;3.97;;;13.40;77.70;;;;;;5033082;28;20526;-68
2023/05/15 03:43:24;;;;;;;6.75;3.58;;;13.40;77.90;;;;;;5035573;28;20022;-77
2023/05/15 03:45:50;;;;;;;5.40;2.80;;;13.40;78.40;;;;;;5029265;28;20040;-75
2023/05/15 03:48:15;;;;;;;6.18;3.80;;;13.30;78.50;;;;;;5022766;28;20029;-77
2023/05/15 03:50:43;;;;;;;5.85;3.42;;;13.40;78.60;;;;;;5030511;28;20525;-67
2023/05/15 03:53:09;;;;;;;5.78;3.28;;;13.40;78.50;;;;;;5023480;28;20022;-68
2023/05/15 03:55:35;;;;;;;3.70;2.30;;;13.40;78.40;;;;;;5021920;28;20447;-68
2023/05/15 03:58:01;;;;;;;7.60;4.47;;;13.40;78.30;;;;;;5024338;28;20050;-68
2023/05/15 04:00:28;;;;;;;8.48;3.55;;;13.50;78.60;;;;;;5034041;28;20369;-68
2023/05/15 04:02:53;;;;;;;6.95;4.13;;;13.50;78.70;;;;;;5029437;28;20040;-68
2023/05/15 04:05:20;;;;;;;10.15;4.68;;;13.50;78.80;;;;;;5016788;28;20024;-67
2023/05/15 04:07:46;;;;;;;7.22;3.30;;;13.50;79.00;;;;;;5030971;28;20022;-68
2023/05/15 04:10:12;;;;;;;11.05;5.10;;;13.50;79.20;;;;;;5030380;28;20036;-77
2023/05/15 04:12:38;;;;;;;7.95;4.20;;;13.50;79.30;;;;;;5029572;28;20072;-77
2023/05/15 04:15:15;;;;;;;5.85;3.83;;;13.50;79.40;;;;;;5029568;28;20052;-77
2023/05/15 04:17:42;;;;;;;5.93;3.95;;;13.60;79.40;;;;;;5026832;28;20045;-78
2023/05/15 04:20:10;;;;;;;5.88;3.60;;;13.60;79.30;;;;;;5029294;28;20064;-68
2023/05/15 04:22:36;;;;;;;4.50;2.80;;;13.60;79.50;;;;;;5032251;28;20527;-77
2023/05/15 04:25:01;;;;;;;8.35;4.10;;;13.60;79.40;;;;;;5029191;28;20025;-77
2023/05/15 04:27:27;;;;;;;6.85;3.78;;;13.70;79.40;;;;;;5026742;28;20036;-77
2023/05/15 04:29:53;;;;;;;5.65;3.50;;;13.70;79.30;;;;;;5031298;28;20485;-77
2023/05/15 04:32:18;;;;;;;6.47;3.92;;;13.80;79.50;;;;;;5017664;28;20040;-77
2023/05/15 04:34:45;;;;;;;5.38;3.60;;;13.80;79.50;;;;;;5032935;28;20507;-68
2023/05/15 04:37:11;;;;;;;6.07;3.65;;;13.80;79.80;;;;;;5040030;28;20037;-78
2023/05/15 04:39:36;;;;;;;6.28;3.63;;;13.80;79.70;;;;;;5032378;28;20037;-68
2023/05/15 04:42:02;;;;;;;6.38;3.15;;;13.80;79.50;;;;;;5031885;28;20029;-77
2023/05/15 04:44:28;;;;;;;5.93;3.10;;;13.90;79.40;;;;;;5026924;28;20037;-77
2023/05/15 04:46:54;;;;;;;5.57;2.33;;;13.90;79.30;;;;;;5027446;28;20370;-77
2023/05/15 04:49:19;;;;;;;6.07;3.20;;;13.90;79.30;;;;;;5037024;28;20083;-77
2023/05/15 04:51:45;;;;;;;4.85;3.60;;;13.90;79.10;;;;;;5024485;28;20045;-68
2023/05/15 04:54:11;;;;;;;6.15;3.03;;;14.00;79.20;;;;;;5026175;28;20104;-67
2023/05/15 04:56:36;;;;;;;6.22;3.50;;;14.00;79.10;;;;;;5026789;28;20034;-67
2023/05/15 04:59:02;;;;;;;6.45;3.53;;;14.00;79.40;;;;;;5026485;28;20034;-77
2023/05/15 05:01:28;;;;;;;5.63;4.10;;;14.00;79.60;;;;;;5026613;28;20060;-77
2023/05/15 05:03:53;;;;;;;5.78;3.45;;;13.90;79.80;;;;;;5026996;28;20108;-78
2023/05/15 05:06:19;;;;;;;6.85;3.80;;;13.90;80.00;;;;;;5008762;28;20037;-67
2023/05/15 05:08:45;;;;;;;7.82;3.67;;;13.90;80.40;;;;;;5027172;28;20049;-67
2023/05/15 05:11:11;;;;;;;5.78;3.25;;;13.90;80.50;;;;;;5032751;28;20646;-67
2023/05/15 05:13:36;;;;;;;5.75;2.90;;;13.90;80.30;;;;;;5041319;28;20025;-67
2023/05/15 05:16:02;;;;;;;6.38;3.00;;;14.00;80.20;;;;;;5030821;28;20417;-67
2023/05/15 05:18:29;;;;;;;4.90;2.70;;;14.00;80.00;;;;;;5040948;28;20400;-77
2023/05/15 05:21:02;;;;;;;4.68;2.38;;;14.10;79.90;;;;;;5027853;28;20075;-77
2023/05/15 05:23:28;;;;;;;6.50;3.03;;;14.20;79.70;;;;;;5034542;28;20092;-76
2023/05/15 05:25:54;;;;;;;9.88;4.43;;;14.20;79.50;;;;;;5030010;28;20390;-77
2023/05/15 05:28:20;;;;;;;8.15;4.38;;;14.20;79.50;;;;;;5041657;28;20024;-75
2023/05/15 05:30:46;;;;;;;7.78;4.07;;;14.20;79.50;;;;;;5033783;28;20039;-77
2023/05/15 05:33:12;;;;;;;10.48;4.88;;;14.20;79.70;;;;;;5034806;28;20400;-77
2023/05/15 05:35:38;;;;;;;6.68;3.88;;;14.20;79.70;;;;;;5009101;28;20030;-77
2023/05/15 05:38:03;;;;;;;9.23;4.85;;;14.20;79.80;;;;;;5028424;28;20030;-67
2023/05/15 05:40:29;;;;;;;6.90;4.13;;;14.30;79.80;;;;;;5024364;28;20055;-67
2023/05/15 05:43:01;;;;;;;5.28;3.35;;;14.20;79.50;;;;;;5033604;28;20040;-67
2023/05/15 05:45:27;;;;;;;7.15;4.65;;;14.30;79.40;;;;;;5021985;28;20025;-68
2023/05/15 05:47:55;;;;;;;7.20;3.25;;;14.30;79.20;;;;;;5031117;28;20532;-77
2023/05/15 05:50:20;;;;;;;7.15;4.03;;;14.30;79.00;;;;;;5027129;28;20473;-76
2023/05/15 05:52:46;;;;;;;5.28;3.42;;;14.20;78.70;;;;;;5029264;28;20164;-77
2023/05/15 05:55:14;;;;;;;8.25;3.72;;;14.30;78.70;;;;;;5025399;28;20409;-76
2023/05/15 05:57:40;;;;;;;4.50;3.28;;;14.40;78.60;;;;;;5031102;28;20049;-77
2023/05/15 06:00:09;;;;;;;7.15;3.38;;;14.40;78.40;;;;;;5030506;28;20033;-75
2023/05/15 06:02:39;;;;;;;6.43;3.45;;;14.40;78.30;;;;;;5029934;28;20037;-76
2023/05/15 06:05:05;;;;;;;4.75;3.38;;;14.40;78.10;;;;;;5031388;28;20696;-75
2023/05/15 06:07:32;;;;;;;10.20;3.55;;;14.50;78.00;;;;;;5024986;28;20029;-75
2023/05/15 06:09:58;;;;;;;7.53;3.67;;;14.60;77.70;;;;;;5031979;28;20183;-67
2023/05/15 06:12:23;;;;;;;7.75;3.03;;;14.60;77.70;;;;;;5029436;28;20112;-67
2023/05/15 06:14:49;;;;;;;7.18;2.97;;;14.70;77.70;;;;;;5029037;28;20167;-67
2023/05/15 06:17:15;;;;;;;5.50;3.10;;;14.80;77.40;;;;;;5027983;28;20076;-67
2023/05/15 06:19:41;;;;;;;7.10;4.25;;;14.90;77.00;;;;;;5025080;28;20021;-66
2023/05/15 06:22:06;;;;;;;5.47;2.90;;;15.00;76.30;;;;;;5026054;28;20028;-76
2023/05/15 06:24:32;;;;;;;6.43;3.45;;;14.90;76.90;;;;;;5026540;28;20056;-76
2023/05/15 06:26:58;;;;;;;5.88;3.33;;;15.00;76.30;;;;;;5013329;28;20037;-76
2023/05/15 06:29:25;;;;;;;4.55;2.65;;;15.00;76.00;;;;;;5028571;28;20034;-75
2023/05/15 06:31:50;;;;;;;7.57;3.20;;;15.00;75.90;;;;;;5031896;28;20063;-75
2023/05/15 06:34:16;;;;;;;3.72;2.60;;;15.10;75.70;;;;;;5032082;28;20056;-76
2023/05/15 06:36:42;;;;;;;6.28;3.17;;;15.20;75.40;;;;;;5031669;28;20029;-66
2023/05/15 06:39:10;;;;;;;3.75;2.67;;;15.30;74.90;;;;;;5028501;28;20049;-67
2023/05/15 06:41:37;;;;;;;5.38;2.70;;;15.30;74.70;;;;;;5030600;28;20026;-67
2023/05/15 06:44:03;;;;;;;4.50;2.60;;;15.40;74.40;;;;;;5034614;28;20064;-66
2023/05/15 06:46:29;;;;;;;4.00;2.30;;;15.50;74.20;;;;;;5033549;28;20042;-66
2023/05/15 06:48:55;;;;;;;3.20;2.10;;;15.50;74.10;;;;;;5035772;28;20041;-67
2023/05/15 06:51:20;;;;;;;3.88;2.85;;;15.70;73.90;;;;;;5037116;28;20040;-66
2023/05/15 06:53:46;;;;;;;3.63;2.65;;;15.80;73.80;;;;;;5027674;28;20037;-76
2023/05/15 06:56:12;;;;;;;7.05;3.00;;;16.00;73.40;;;;;;5009396;28;20412;-75
2023/05/15 06:58:38;;;;;;;8.75;3.85;;;16.00;73.00;;;;;;5026548;28;20088;-76
2023/05/15 07:01:05;;;;;;;4.05;2.30;;;16.00;72.80;;;;;;5029877;28;20022;-66
2023/05/15 07:03:31;;;;;;;4.28;2.25;;;15.90;73.10;;;;;;5027937;28;20112;-77
2023/05/15 07:05:57;;;;;;;5.35;3.25;;;16.00;73.10;;;;;;5027665;28;20117;-72
2023/05/15 07:08:22;;;;;;;5.15;2.60;;;16.00;72.70;;;;;;5030817;28;20047;-66
2023/05/15 07:10:48;;;;;;;5.30;3.08;;;15.90;72.70;;;;;;5030270;28;20104;-66
2023/05/15 07:13:16;;;;;;;3.83;2.17;;;15.80;72.60;;;;;;5027162;28;20083;-76
2023/05/15 07:15:43;;;;;;;2.08;1.88;;;15.80;72.80;;;;;;5025597;28;20029;-77
2023/05/15 07:18:08;;;;;;;5.15;2.28;;;15.80;72.80;;;;;;5031463;28;20490;-68
2023/05/15 07:20:34;;;;;;;5.35;3.25;;;15.80;72.80;;;;;;5026700;28;20059;-75
2023/05/15 07:23:00;;;;;;;4.55;2.40;;;15.90;72.70;;;;;;5036673;28;20081;-72
2023/05/15 07:25:25;;;;;;;2.78;2.15;;;16.00;72.50;;;;;;5022940;28;20542;-67
2023/05/15 07:27:51;;;;;;;3.70;2.72;;;16.00;72.40;;;;;;5030097;28;20116;-65
2023/05/15 07:30:17;;;;;;;10.27;2.78;;;16.20;72.20;;;;;;5032576;28;20068;-74
2023/05/15 07:32:43;;;;;;;4.85;3.20;;;16.20;71.80;;;;;;5028611;28;20030;-65
2023/05/15 07:35:10;;;;;;;3.83;2.13;;;16.20;71.70;;;;;;5031650;28;20099;-74
2023/05/15 07:37:36;;;;;;;6.68;3.25;;;16.20;71.90;;;;;;5031410;28;20033;-65
2023/05/15 07:40:03;;;;;;;5.75;3.55;;;16.30;71.80;;;;;;5038258;28;20037;-74
2023/05/15 07:42:28;;;;;;;3.50;2.40;;;16.40;71.50;;;;;;5028774;28;20030;-65
2023/05/15 07:44:54;;;;;;;4.28;2.75;;;16.50;71.30;;;;;;5033142;28;20021;-65
2023/05/15 07:47:20;;;;;;;3.38;1.98;;;16.50;71.60;;;;;;5030198;28;20037;-65
2023/05/15 07:49:46;;;;;;;3.38;2.20;;;16.60;71.10;;;;;;5040533;28;20031;-65
2023/05/15 07:52:11;;;;;;;3.00;2.22;;;16.80;70.70;;;;;;5031091;28;20038;-65
2023/05/15 07:54:40;;;;;;;5.45;3.13;;;16.90;70.40;;;;;;5037060;28;20033;-65
2023/05/15 07:57:06;;;;;;;6.22;3.45;;;17.10;69.60;;;;;;5035768;28;20099;-73
2023/05/15 07:59:34;;;;;;;4.55;2.78;;;17.10;69.00;;;;;;5032786;28;20021;-74
2023/05/15 08:02:00;;;;;;;4.13;2.63;;;17.10;68.90;;;;;;5039481;28;20388;-73
2023/05/15 08:04:25;;;;;;;3.28;2.28;;;17.20;68.90;;;;;;5034725;28;20036;-74
2023/05/15 08:06:51;;;;;;;4.70;3.10;;;17.20;68.10;;;;;;5036330;28;20477;-74
2023/05/15 08:09:17;;;;;;;3.33;2.67;;;17.20;67.80;;;;;;5040756;28;20431;-74
2023/05/15 08:11:43;;;;;;;5.03;2.35;;;17.30;67.70;;;;;;5035518;28;20051;-74
2023/05/15 08:14:08;;;;;;;4.18;2.55;;;17.40;67.30;;;;;;5035163;28;20053;-73
2023/05/15 08:16:34;;;;;;;4.68;1.88;;;17.50;66.90;;;;;;5036607;28;20039;-74
2023/05/15 08:19:03;;;;;;;4.45;2.28;;;17.70;66.80;;;;;;5039518;28;20108;-74
2023/05/15 08:21:32;;;;;;;3.63;2.40;;;17.80;66.50;;;;;;5032248;28;20051;-65
2023/05/15 08:23:59;;;;;;;3.22;2.13;;;17.90;66.00;;;;;;5028560;28;20040;-73
2023/05/15 08:26:25;;;;;;;2.38;1.83;;;18.00;65.60;;;;;;5029924;28;20121;-74
2023/05/15 08:28:51;;;;;;;2.95;2.05;;;18.10;65.60;;;;;;5028412;28;20094;-74
2023/05/15 08:31:17;;;;;;;2.58;2.20;;;18.10;64.70;;;;;;5036308;28;20041;-74
2023/05/15 08:33:43;;;;;;;2.40;1.73;;;18.20;64.50;;;;;;5070725;28;20046;-66
2023/05/15 08:36:08;;;;;;;3.72;2.20;;;18.30;64.30;;;;;;5031027;28;20033;-74
2023/05/15 08:38:34;;;;;;;4.07;2.05;;;18.40;63.10;;;;;;5034372;28;20049;-74
2023/05/15 08:41:20;;;;;;;4.38;2.55;;;18.40;63.00;;;;;;5012366;28;20068;-74
2023/05/15 08:43:48;;;;;;;2.35;1.58;;;18.50;63.10;;;;;;5026640;28;20478;-66
2023/05/15 08:46:14;;;;;;;2.22;1.60;;;18.60;63.20;;;;;;5031249;28;20040;-65
2023/05/15 08:48:42;;;;;;;3.00;2.33;;;18.70;63.20;;;;;;5040219;28;20029;-74
2023/05/15 08:51:09;;;;;;;3.03;1.88;;;18.80;62.60;;;;;;5031444;28;20507;-65
2023/05/15 08:53:36;;;;;;;3.50;2.30;;;18.90;62.30;;;;;;5028922;28;20544;-70
2023/05/15 08:56:02;;;;;;;3.75;2.45;;;19.00;62.20;;;;;;5031457;28;20037;-64
2023/05/15 08:58:28;;;;;;;2.33;2.05;;;19.00;61.70;;;;;;5030049;28;20045;-68
2023/05/15 09:00:55;;;;;;;2.35;2.10;;;19.00;61.10;;;;;;5033806;28;20076;-61
2023/05/15 09:03:22;;;;;;;2.58;1.80;;;19.10;60.70;;;;;;5017761;28;20026;-62
2023/05/15 09:05:51;;;;;;;2.13;1.92;;;19.20;60.00;;;;;;5024873;28;20025;-61
2023/05/15 09:08:18;;;;;;;3.08;1.90;;;19.30;60.10;;;;;;5029546;28;20060;-61
2023/05/15 09:10:44;;;;;;;2.83;1.70;;;19.40;59.40;;;;;;5025888;28;20083;-61
2023/05/15 09:13:11;;;;;;;2.25;1.88;;;19.50;59.80;;;;;;5037276;28;20063;-61
2023/05/15 09:15:37;;;;;;;1.98;1.38;;;19.70;59.40;;;;;;5033967;28;20047;-61
2023/05/15 09:18:03;;;;;;;1.67;1.35;;;19.80;59.40;;;;;;5038042;28;20031;-62
2023/05/15 09:20:34;;;;;;;2.28;1.88;;;19.90;59.60;;;;;;5029996;28;20029;-62
2023/05/15 09:23:02;;;;;;;5.15;1.80;;;19.90;59.10;;;;;;5027767;28;20033;-68
2023/05/15 09:25:37;;;;;;;2.97;1.90;;;20.00;59.00;;;;;;5028088;28;20188;-61
2023/05/15 09:28:03;;;;;;;3.28;1.92;;;20.10;58.60;;;;;;5040139;28;20440;-61
2023/05/15 09:30:30;;;;;;;3.00;1.88;;;20.10;58.20;;;;;;5030261;28;20117;-62
2023/05/15 09:33:03;;;;;;;5.25;1.83;;;20.10;57.70;;;;;;5032346;28;20779;-62
2023/05/15 09:35:39;;;;;;;2.38;1.80;;;20.00;57.70;;;;;;5032319;28;20076;-62
2023/05/15 09:38:11;;;;;;;1.52;1.30;;;19.90;57.40;;;;;;5028980;28;20044;-63
2023/05/15 09:40:38;;;;;;;2.88;1.70;;;19.90;57.80;;;;;;5037708;28;20368;-62
2023/05/15 09:43:04;;;;;;;2.03;1.83;;;20.10;57.90;;;;;;5033184;28;20048;-62
2023/05/15 09:45:30;;;;;;;2.28;1.95;;;20.30;57.60;;;;;;5034275;28;20034;-68
2023/05/15 09:47:58;;;;;;;3.58;2.15;;;20.60;57.30;;;;;;5028344;28;20441;-68
2023/05/15 09:50:34;;;;;;;1.60;1.50;;;20.90;56.80;;;;;;5029743;28;20037;-62
2023/05/15 09:53:00;;;;;;;2.33;1.42;;;21.20;56.70;;;;;;5035122;28;20029;-61
2023/05/15 09:55:29;;;;;;;2.47;1.90;;;21.30;55.70;;;;;;5031117;28;20042;-68
2023/05/15 09:58:12;;;;;;;1.92;1.33;;;21.30;55.40;;;;;;5035563;28;20200;-68
2023/05/15 10:00:40;;;;;;;2.30;1.27;;;21.40;55.70;;;;;;5032203;28;20049;-61
2023/05/15 10:03:07;;;;;;;2.17;1.67;;;21.40;56.00;;;;;;5033772;28;20045;-63
2023/05/15 10:05:33;;;;;;;1.98;1.60;;;21.50;55.70;;;;;;5030567;28;20022;-62
2023/05/15 10:07:59;;;;;;;2.60;1.85;;;21.40;55.90;;;;;;5035482;28;20040;-68
2023/05/15 10:10:26;;;;;;;5.10;2.42;;;21.50;55.80;;;;;;5026227;28;20061;-68
2023/05/15 10:12:53;;;;;;;2.38;1.80;;;21.50;55.90;;;;;;5027968;28;20053;-68
2023/05/15 10:15:21;;;;;;;2.55;1.88;;;21.40;56.30;;;;;;5023473;28;20065;-68
2023/05/15 10:17:48;;;;;;;4.35;2.90;;;21.40;56.10;;;;;;5025456;28;21854;-61
2023/05/15 10:20:16;;;;;;;4.40;2.80;;;21.30;55.80;;;;;;5059200;28;20049;-62
2023/05/15 10:22:46;;;;;;;2.65;2.20;;;21.10;55.20;;;;;;5029357;28;20062;-62
2023/05/15 10:25:34;;;;;;;5.22;3.65;;;20.80;55.90;;;;;;5034332;28;20029;-68
2023/05/15 10:28:00;;;;;;;5.18;2.97;;;20.70;55.40;;;;;;5030051;28;20178;-68
2023/05/15 10:30:27;;;;;;;2.38;1.95;;;20.60;55.70;;;;;;5028253;28;20745;-62
2023/05/15 10:32:55;;;;;;;4.78;2.10;;;20.70;56.10;;;;;;5024341;28;20056;-68
2023/05/15 10:35:21;;;;;;;3.28;2.05;;;21.00;55.60;;;;;;5024719;28;20121;-68
2023/05/15 10:37:49;;;;;;;3.63;1.98;;;21.10;54.60;;;;;;5034248;28;20120;-61
2023/05/15 10:40:16;;;;;;;2.30;1.63;;;21.20;54.30;;;;;;5024797;28;20682;-62
2023/05/15 10:42:43;;;;;;;2.17;1.55;;;21.30;54.30;;;;;;5025907;28;20063;-61
2023/05/15 10:45:10;;;;;;;7.93;2.72;;;21.40;53.60;;;;;;5019232;28;20472;-62
2023/05/15 10:47:38;;;;;;;2.97;1.88;;;21.40;53.10;;;;;;5031422;28;20032;-62
2023/05/15 10:50:05;;;;;;;2.45;1.70;;;21.40;52.80;;;;;;5029343;28;20038;-62
2023/05/15 10:52:32;;;;;;;1.75;1.63;;;21.40;52.70;;;;;;5031368;28;20084;-62
2023/05/15 10:54:59;;;;;;;2.72;1.90;;;21.40;54.10;;;;;;5020845;28;20030;-62
2023/05/15 10:57:27;;;;;;;3.47;1.73;;;21.40;53.80;;;;;;5026679;28;20144;-68
2023/05/15 10:59:53;;;;;;;3.70;1.80;;;21.40;54.10;;;;;;5028607;28;20029;-67
2023/05/15 11:02:20;;;;;;;1.83;1.52;;;21.40;53.50;;;;;;5027557;28;20044;-67
2023/05/15 11:04:46;;;;;;;3.05;1.90;;;21.20;54.40;;;;;;5019955;28;20057;-67
2023/05/15 11:07:14;;;;;;;2.38;1.60;;;21.20;52.80;;;;;;5020625;28;20084;-66
2023/05/15 11:09:39;;;;;;;6.07;1.80;;;21.10;51.80;;;;;;5026761;28;20033;-61
2023/05/15 11:12:12;;;;;;;3.63;1.67;;;20.90;51.50;;;;;;5029229;28;20040;-60
2023/05/15 11:14:40;;;;;;;3.50;1.63;;;20.80;52.40;;;;;;5026674;28;20508;-61
2023/05/15 11:17:11;;;;;;;2.25;1.23;;;20.80;52.60;;;;;;5024221;28;20112;-60
2023/05/15 11:19:50;;;;;;;2.92;1.60;;;20.70;53.10;;;;;;5029293;28;20025;-61
2023/05/15 11:22:18;;;;;;;2.97;1.70;;;20.80;53.30;;;;;;5026915;28;20076;-60
2023/05/15 11:24:54;;;;;;;2.67;1.98;;;20.80;53.20;;;;;;5033133;28;20064;-66
2023/05/15 11:27:25;;;;;;;3.17;1.75;;;20.70;52.90;;;;;;5027708;28;20427;-60
2023/05/15 11:30:13;;;;;;;3.35;1.92;;;20.70;53.50;;;;;;5029504;28;20491;-66
2023/05/15 11:32:47;;;;;;;2.97;1.92;;;20.70;53.70;;;;;;5032401;28;20083;-66
2023/05/15 11:35:17;;;;;;;7.65;2.38;;;20.60;54.00;;;;;;5027665;28;20074;-60
2023/05/15 11:37:50;;;;;;;1.60;1.48;;;20.60;54.40;;;;;;5029617;28;20419;-61
2023/05/15 11:40:26;;;;;;;4.93;2.53;;;20.50;55.10;;;;;;5031775;28;20520;-66
2023/05/15 11:43:01;;;;;;;3.83;2.55;;;20.50;55.60;;;;;;5030407;28;20049;-61
2023/05/15 11:45:31;;;;;;;3.72;2.53;;;20.50;55.50;;;;;;5028147;28;20030;-66
2023/05/15 11:48:01;;;;;;;6.10;2.63;;;20.40;55.50;;;;;;5058902;28;20085;-61
2023/05/15 11:50:27;;;;;;;5.25;2.00;;;20.40;55.60;;;;;;5032256;28;20018;-61
2023/05/15 11:52:53;;;;;;;4.07;2.75;;;20.40;56.10;;;;;;5018425;28;20053;-63
2023/05/15 11:55:20;;;;;;;3.53;2.33;;;20.30;56.30;;;;;;5027437;28;20032;-66
2023/05/15 11:57:46;;;;;;;4.38;2.45;;;20.30;56.70;;;;;;5023968;28;20051;-66
2023/05/15 12:00:13;;;;;;;2.85;2.25;;;20.40;56.80;;;;;;5014157;28;20481;-60
2023/05/15 12:02:39;;;;;;;4.55;3.33;;;20.40;56.90;;;;;;5024054;28;20060;-60
2023/05/15 12:05:08;;;;;;;7.15;3.72;;;20.40;56.70;;;;;;5018429;28;20079;-60
2023/05/15 12:07:42;;;;;;;4.65;3.38;;;20.30;57.20;;;;;;5028045;28;20095;-61
2023/05/15 12:10:12;;;;;;;5.88;3.10;;;20.20;57.90;;;;;;5023226;28;20034;-60
2023/05/15 12:12:45;;;;;;;7.22;4.20;;;20.10;57.70;;;;;;5021250;28;20052;-66
2023/05/15 12:15:15;;;;;;;5.63;3.67;;;20.10;57.90;;;;;;5018357;28;20567;-66
2023/05/15 12:17:43;;;;;;;9.52;4.55;;;20.00;58.40;;;;;;5020283;28;20420;-66
2023/05/15 12:20:17;;;;;;;8.15;4.10;;;19.90;58.70;;;;;;5031323;28;20121;-66
2023/05/15 12:22:43;;;;;;;4.60;3.63;;;19.80;58.90;;;;;;5023219;28;20037;-60
2023/05/15 12:25:10;;;;;;;7.75;3.97;;;19.80;59.30;;;;;;5033792;28;20033;-66
2023/05/15 12:27:38;;;;;;;8.15;4.53;;;19.80;59.50;;;;;;5024525;28;20030;-66
2023/05/15 12:30:05;;;;;;;7.72;3.90;;;19.80;59.50;;;;;;5030472;28;20033;-66
2023/05/15 12:32:32;;;;;;;7.57;4.07;;;19.80;60.00;;;;;;5028050;28;20124;-66
2023/05/15 12:34:58;;;;;;;7.70;4.38;;;19.80;60.00;;;;;;5029006;28;20025;-60
2023/05/15 12:37:24;;;;;;;10.40;5.13;;;19.70;59.90;;;;;;5028775;28;20043;-65
2023/05/15 12:40:10;;;;;;;10.45;4.93;;;19.70;60.00;;;;;;5026857;28;20029;-66
2023/05/15 12:42:43;;;;;;;8.18;4.95;;;19.70;60.10;;;;;;5027297;28;20205;-61
2023/05/15 12:45:16;;;;;;;7.20;4.55;;;19.70;60.20;;;;;;5034703;28;20120;-61
2023/05/15 12:47:43;;;;;;;7.95;4.57;;;19.70;60.30;;;;;;5025110;28;20160;-61